aviador You're here:

LFMT Decoded Metar

MONTPELLIER in FRANCE
Report Time2017-09-23 09:00:00
UTC Time2017-09-23 09:10:11
Flight Rules vfr VFR
Wind080° at 03 kt
W.Decomp.*RWY 12: 2.3 kt HW 1.9 kt LCW
W.Rank080° ranks 34
Current wind is below 080° avg. (6.8)
Visibility9999 m
Phenomena:N/A
Clouds:Broken 013 Hf
Few 022 Hf
Overcast 130 Hf
Expected CloudBase > 1,600 ft AGL from Temp-Dew spread
Ceiling13,000 ft
Temp19°C (ISA +4)
Dew Point15°C (78% RH)
QNH1022 hPa
Density Alt417 ft
Elevation20 ft
Report Wrong Elevation
Raw Report
METAR LFMT 230900Z AUTO 08003KT 9999 FEW022 OVC130 19/15 Q1022 TEMPO
BKN013 BECMG 20010KT=

Extra information for LFMT:More info

Metar Taf Metar & Taf Last 4 Metars F.Rules Stats Wind Profile Meteogram Temp Stats Airport Information Weather charts Add Link Nearby VenuesMetar ALERT Operation Metar Decoded Social comments